sensor_id;sensor_type;location;lat;lon;timestamp;pressure;altitude;pressure_sealevel;temperature;humidity
64253;BME280;50592;52.958;-7.470;2023-04-25T00:01:01;100687.66;;;3.46;100.00
64253;BME280;50592;52.958;-7.470;2023-04-25T00:03:27;100696.16;;;3.50;100.00
64253;BME280;50592;52.958;-7.470;2023-04-25T00:05:54;100696.81;;;3.53;100.00
64253;BME280;50592;52.958;-7.470;2023-04-25T00:08:22;100698.13;;;3.60;100.00
64253;BME280;50592;52.958;-7.470;2023-04-25T00:10:48;100698.59;;;3.67;100.00
64253;BME280;50592;52.958;-7.470;2023-04-25T00:13:14;100698.50;;;3.69;100.00
64253;BME280;50592;52.958;-7.470;2023-04-25T00:15:40;100702.78;;;3.70;100.00
64253;BME280;50592;52.958;-7.470;2023-04-25T00:18:07;100694.13;;;3.69;100.00
64253;BME280;50592;52.958;-7.470;2023-04-25T00:20:32;100697.47;;;3.71;100.00
64253;BME280;50592;52.958;-7.470;2023-04-25T00:22:58;100697.47;;;3.71;100.00
64253;BME280;50592;52.958;-7.470;2023-04-25T00:25:24;100693.47;;;3.66;100.00
64253;BME280;50592;52.958;-7.470;2023-04-25T00:27:50;100686.38;;;3.68;100.00
64253;BME280;50592;52.958;-7.470;2023-04-25T00:30:15;100698.31;;;3.72;100.00
64253;BME280;50592;52.958;-7.470;2023-04-25T00:32:41;100695.72;;;3.72;100.00
64253;BME280;50592;52.958;-7.470;2023-04-25T00:35:07;100702.59;;;3.73;100.00
64253;BME280;50592;52.958;-7.470;2023-04-25T00:37:33;100706.25;;;3.70;100.00
64253;BME280;50592;52.958;-7.470;2023-04-25T00:39:58;100706.44;;;3.67;100.00
64253;BME280;50592;52.958;-7.470;2023-04-25T00:42:24;100711.94;;;3.63;100.00
64253;BME280;50592;52.958;-7.470;2023-04-25T00:44:51;100711.66;;;3.53;100.00
64253;BME280;50592;52.958;-7.470;2023-04-25T00:47:17;100713.78;;;3.46;100.00
64253;BME280;50592;52.958;-7.470;2023-04-25T00:49:42;100715.00;;;3.40;100.00
64253;BME280;50592;52.958;-7.470;2023-04-25T00:52:08;100710.88;;;3.36;100.00
64253;BME280;50592;52.958;-7.470;2023-04-25T00:54:34;100710.31;;;3.31;100.00
64253;BME280;50592;52.958;-7.470;2023-04-25T00:56:59;100714.88;;;3.27;100.00
64253;BME280;50592;52.958;-7.470;2023-04-25T00:59:27;100711.69;;;3.22;100.00
64253;BME280;50592;52.958;-7.470;2023-04-25T01:01:53;100711.88;;;3.19;100.00
64253;BME280;50592;52.958;-7.470;2023-04-25T01:04:19;100710.09;;;3.19;100.00
64253;BME280;50592;52.958;-7.470;2023-04-25T01:06:45;100706.75;;;3.17;100.00
64253;BME280;50592;52.958;-7.470;2023-04-25T01:09:11;100708.03;;;3.10;100.00
64253;BME280;50592;52.958;-7.470;2023-04-25T01:11:38;100710.06;;;3.05;100.00
64253;BME280;50592;52.958;-7.470;2023-04-25T01:14:05;100705.19;;;2.98;100.00
64253;BME280;50592;52.958;-7.470;2023-04-25T01:16:32;100706.31;;;2.94;100.00
64253;BME280;50592;52.958;-7.470;2023-04-25T01:18:58;100699.56;;;2.90;100.00
64253;BME280;50592;52.958;-7.470;2023-04-25T01:21:24;100699.75;;;2.87;100.00
64253;BME280;50592;52.958;-7.470;2023-04-25T01:23:52;100695.91;;;2.78;100.00
64253;BME280;50592;52.958;-7.470;2023-04-25T01:26:19;100692.03;;;2.69;100.00
64253;BME280;50592;52.958;-7.470;2023-04-25T01:28:46;100688.78;;;2.66;100.00
64253;BME280;50592;52.958;-7.470;2023-04-25T01:31:12;100695.75;;;2.65;100.00
64253;BME280;50592;52.958;-7.470;2023-04-25T01:33:39;100688.78;;;2.66;100.00
64253;BME280;50592;52.958;-7.470;2023-04-25T01:36:05;100691.94;;;2.71;100.00
64253;BME280;50592;52.958;-7.470;2023-04-25T01:38:30;100685.63;;;2.75;100.00
64253;BME280;50592;52.958;-7.470;2023-04-25T01:40:56;100692.34;;;2.79;100.00
64253;BME280;50592;52.958;-7.470;2023-04-25T01:43:22;100694.13;;;2.79;100.00
64253;BME280;50592;52.958;-7.470;2023-04-25T01:45:48;100697.31;;;2.84;100.00
64253;BME280;50592;52.958;-7.470;2023-04-25T01:48:15;100698.75;;;2.90;100.00
64253;BME280;50592;52.958;-7.470;2023-04-25T01:50:43;100701.00;;;2.96;100.00
64253;BME280;50592;52.958;-7.470;2023-04-25T01:53:10;100703.34;;;3.01;100.00
64253;BME280;50592;52.958;-7.470;2023-04-25T01:55:38;100702.91;;;3.08;100.00
64253;BME280;50592;52.958;-7.470;2023-04-25T01:58:07;100706.28;;;3.10;100.00
64253;BME280;50592;52.958;-7.470;2023-04-25T02:00:54;100702.91;;;3.08;100.00
64253;BME280;50592;52.958;-7.470;2023-04-25T02:03:20;100711.09;;;3.02;100.00
64253;BME280;50592;52.958;-7.470;2023-04-25T02:05:45;100706.06;;;2.99;100.00
64253;BME280;50592;52.958;-7.470;2023-04-25T02:08:12;100699.31;;;2.95;100.00
64253;BME280;50592;52.958;-7.470;2023-04-25T02:10:38;100703.72;;;2.94;100.00
64253;BME280;50592;52.958;-7.470;2023-04-25T02:13:19;100704.44;;;2.96;100.00
64253;BME280;50592;52.958;-7.470;2023-04-25T02:16:17;100709.47;;;3.00;100.00
64253;BME280;50592;52.958;-7.470;2023-04-25T02:18:43;100708.47;;;3.02;100.00
64253;BME280;50592;52.958;-7.470;2023-04-25T02:21:10;100708.56;;;3.01;100.00
64253;BME280;50592;52.958;-7.470;2023-04-25T02:23:36;100707.91;;;2.97;100.00
64253;BME280;50592;52.958;-7.470;2023-04-25T02:26:02;100707.75;;;2.84;100.00
64253;BME280;50592;52.958;-7.470;2023-04-25T02:28:28;100704.66;;;2.77;100.00
64253;BME280;50592;52.958;-7.470;2023-04-25T02:30:54;100692.97;;;2.68;100.00
64253;BME280;50592;52.958;-7.470;2023-04-25T02:33:20;100696.88;;;2.61;100.00
64253;BME280;50592;52.958;-7.470;2023-04-25T02:35:46;100696.53;;;2.51;100.00
64253;BME280;50592;52.958;-7.470;2023-04-25T02:38:12;100688.97;;;2.30;100.00
64253;BME280;50592;52.958;-7.470;2023-04-25T02:40:39;100692.41;;;2.15;100.00
64253;BME280;50592;52.958;-7.470;2023-04-25T02:43:06;100692.84;;;2.07;100.00
64253;BME280;50592;52.958;-7.470;2023-04-25T02:45:32;100687.88;;;2.02;100.00
64253;BME280;50592;52.958;-7.470;2023-04-25T02:47:58;100689.63;;;2.02;100.00
64253;BME280;50592;52.958;-7.470;2023-04-25T02:50:23;100685.09;;;2.05;100.00
64253;BME280;50592;52.958;-7.470;2023-04-25T02:52:49;100685.75;;;2.09;100.00
64253;BME280;50592;52.958;-7.470;2023-04-25T02:55:19;100678.53;;;2.14;100.00
64253;BME280;50592;52.958;-7.470;2023-04-25T02:57:46;100691.06;;;2.23;100.00
64253;BME280;50592;52.958;-7.470;2023-04-25T03:00:18;100680.19;;;2.31;100.00
64253;BME280;50592;52.958;-7.470;2023-04-25T03:02:44;100684.69;;;2.29;100.00
64253;BME280;50592;52.958;-7.470;2023-04-25T03:05:10;100689.97;;;2.28;100.00
64253;BME280;50592;52.958;-7.470;2023-04-25T03:07:37;100682.56;;;2.20;100.00
64253;BME280;50592;52.958;-7.470;2023-04-25T03:10:05;100681.47;;;2.08;100.00
64253;BME280;50592;52.958;-7.470;2023-04-25T03:12:32;100685.09;;;2.05;100.00
64253;BME280;50592;52.958;-7.470;2023-04-25T03:14:58;100697.03;;;2.09;100.00
64253;BME280;50592;52.958;-7.470;2023-04-25T03:17:23;100690.78;;;1.96;100.00
64253;BME280;50592;52.958;-7.470;2023-04-25T03:19:49;100681.88;;;1.84;100.00
64253;BME280;50592;52.958;-7.470;2023-04-25T03:22:15;100676.41;;;1.89;100.00
64253;BME280;50592;52.958;-7.470;2023-04-25T03:24:41;100682.38;;;1.91;100.00
64253;BME280;50592;52.958;-7.470;2023-04-25T03:27:06;100684.13;;;1.90;100.00
64253;BME280;50592;52.958;-7.470;2023-04-25T03:29:32;100673.63;;;1.92;100.00
64253;BME280;50592;52.958;-7.470;2023-04-25T03:32:01;100679.69;;;1.92;100.00
64253;BME280;50592;52.958;-7.470;2023-04-25T03:34:27;100683.13;;;1.93;100.00
64253;BME280;50592;52.958;-7.470;2023-04-25T03:36:53;100683.72;;;1.98;100.00
64253;BME280;50592;52.958;-7.470;2023-04-25T03:39:19;100682.66;;;2.02;100.00
64253;BME280;50592;52.958;-7.470;2023-04-25T03:41:48;100679.63;;;2.10;100.00
64253;BME280;50592;52.958;-7.470;2023-04-25T03:44:16;100689.03;;;2.13;100.00
64253;BME280;50592;52.958;-7.470;2023-04-25T03:46:42;100677.84;;;2.10;100.00
64253;BME280;50592;52.958;-7.470;2023-04-25T03:49:07;100677.94;;;2.09;100.00
64253;BME280;50592;52.958;-7.470;2023-04-25T03:51:51;100682.25;;;2.10;100.00
64253;BME280;50592;52.958;-7.470;2023-04-25T03:54:17;100683.75;;;2.14;100.00
64253;BME280;50592;52.958;-7.470;2023-04-25T03:57:06;100689.38;;;2.22;100.00
64253;BME280;50592;52.958;-7.470;2023-04-25T03:59:36;100692.00;;;2.22;100.00
64253;BME280;50592;52.958;-7.470;2023-04-25T04:02:02;100696.88;;;2.29;100.00
64253;BME280;50592;52.958;-7.470;2023-04-25T04:04:28;100690.06;;;2.26;100.00
64253;BME280;50592;52.958;-7.470;2023-04-25T04:06:54;100695.50;;;2.21;100.00
64253;BME280;50592;52.958;-7.470;2023-04-25T04:09:29;100688.09;;;2.14;100.00
64253;BME280;50592;52.958;-7.470;2023-04-25T04:11:57;100685.75;;;2.09;100.00
64253;BME280;50592;52.958;-7.470;2023-04-25T04:14:22;100687.78;;;2.04;100.00
64253;BME280;50592;52.958;-7.470;2023-04-25T04:16:50;100680.94;;;2.01;100.00
64253;BME280;50592;52.958;-7.470;2023-04-25T04:19:16;100683.72;;;1.98;100.00
64253;BME280;50592;52.958;-7.470;2023-04-25T04:21:49;100692.66;;;1.94;100.00
64253;BME280;50592;52.958;-7.470;2023-04-25T04:24:15;100690.13;;;1.92;100.00
64253;BME280;50592;52.958;-7.470;2023-04-25T04:26:50;100693.47;;;1.94;100.00
64253;BME280;50592;52.958;-7.470;2023-04-25T04:29:39;100690.66;;;1.99;100.00
64253;BME280;50592;52.958;-7.470;2023-04-25T04:32:21;100699.19;;;2.01;100.00
64253;BME280;50592;52.958;-7.470;2023-04-25T04:34:49;100691.47;;;2.00;100.00
64253;BME280;50592;52.958;-7.470;2023-04-25T04:37:17;100692.72;;;1.92;100.00
64253;BME280;50592;52.958;-7.470;2023-04-25T04:39:43;100695.66;;;1.86;100.00
64253;BME280;50592;52.958;-7.470;2023-04-25T04:42:32;100697.75;;;1.79;100.00
64253;BME280;50592;52.958;-7.470;2023-04-25T04:45:21;100700.00;;;1.69;100.00
64253;BME280;50592;52.958;-7.470;2023-04-25T04:48:20;100695.09;;;1.63;100.00
64253;BME280;50592;52.958;-7.470;2023-04-25T04:51:12;100697.53;;;1.66;100.00
64253;BME280;50592;52.958;-7.470;2023-04-25T04:53:41;100709.50;;;1.70;100.00
64253;BME280;50592;52.958;-7.470;2023-04-25T04:56:19;100703.59;;;1.67;100.00
64253;BME280;50592;52.958;-7.470;2023-04-25T04:58:51;100705.34;;;1.66;100.00
64253;BME280;50592;52.958;-7.470;2023-04-25T05:01:40;100704.44;;;1.67;100.00
64253;BME280;50592;52.958;-7.470;2023-04-25T05:04:26;100701.78;;;1.69;100.00
64253;BME280;50592;52.958;-7.470;2023-04-25T05:06:54;100707.81;;;1.69;100.00
64253;BME280;50592;52.958;-7.470;2023-04-25T05:09:46;100702.59;;;1.69;100.00
64253;BME280;50592;52.958;-7.470;2023-04-25T05:12:28;100706.75;;;1.73;100.00
64253;BME280;50592;52.958;-7.470;2023-04-25T05:15:28;100708.50;;;1.73;100.00
64253;BME280;50592;52.958;-7.470;2023-04-25T05:18:13;100702.47;;;1.55;100.00
64253;BME280;50592;52.958;-7.470;2023-04-25T05:21:04;100708.69;;;1.34;100.00
64253;BME280;50592;52.958;-7.470;2023-04-25T05:24:06;100706.25;;;1.31;100.00
64253;BME280;50592;52.958;-7.470;2023-04-25T05:27:08;100705.09;;;1.37;100.00
64253;BME280;50592;52.958;-7.470;2023-04-25T05:30:05;100704.81;;;1.43;100.00
64253;BME280;50592;52.958;-7.470;2023-04-25T05:32:36;100706.25;;;1.49;100.00
64253;BME280;50592;52.958;-7.470;2023-04-25T05:35:02;100706.84;;;1.54;100.00
64253;BME280;50592;52.958;-7.470;2023-04-25T05:37:34;100700.63;;;1.57;100.00
64253;BME280;50592;52.958;-7.470;2023-04-25T05:40:10;100704.22;;;1.72;100.00
64253;BME280;50592;52.958;-7.470;2023-04-25T05:42:55;100694.66;;;1.89;100.00
64253;BME280;50592;52.958;-7.470;2023-04-25T05:45:41;100706.91;;;1.86;100.00
64253;BME280;50592;52.958;-7.470;2023-04-25T05:48:27;100704.88;;;1.76;100.00
64253;BME280;50592;52.958;-7.470;2023-04-25T05:50:58;100708.41;;;1.75;100.00
64253;BME280;50592;52.958;-7.470;2023-04-25T05:53:42;100705.31;;;1.84;100.00
64253;BME280;50592;52.958;-7.470;2023-04-25T05:56:08;100704.75;;;1.95;100.00
64253;BME280;50592;52.958;-7.470;2023-04-25T05:58:34;100697.38;;;2.03;100.00
64253;BME280;50592;52.958;-7.470;2023-04-25T06:01:00;100704.53;;;2.16;100.00
64253;BME280;50592;52.958;-7.470;2023-04-25T06:03:27;100702.84;;;2.31;100.00
64253;BME280;50592;52.958;-7.470;2023-04-25T06:05:53;100704.78;;;2.43;100.00
64253;BME280;50592;52.958;-7.470;2023-04-25T06:08:19;100701.41;;;2.57;100.00
64253;BME280;50592;52.958;-7.470;2023-04-25T06:10:45;100698.00;;;2.71;100.00
64253;BME280;50592;52.958;-7.470;2023-04-25T06:13:10;100695.63;;;2.83;100.00
64253;BME280;50592;52.958;-7.470;2023-04-25T06:15:36;100695.63;;;2.83;100.00
64253;BME280;50592;52.958;-7.470;2023-04-25T06:18:03;100696.16;;;2.73;100.00
64253;BME280;50592;52.958;-7.470;2023-04-25T06:20:28;100701.47;;;2.72;100.00
64253;BME280;50592;52.958;-7.470;2023-04-25T06:22:57;100701.47;;;2.72;100.00
64253;BME280;50592;52.958;-7.470;2023-04-25T06:25:52;100696.63;;;2.80;100.00
64253;BME280;50592;52.958;-7.470;2023-04-25T06:28:18;100699.38;;;2.93;100.00
64253;BME280;50592;52.958;-7.470;2023-04-25T06:30:44;100697.19;;;3.02;100.00
64253;BME280;50592;52.958;-7.470;2023-04-25T06:33:13;100694.47;;;3.03;100.00
64253;BME280;50592;52.958;-7.470;2023-04-25T06:35:40;100698.13;;;3.01;100.00
64253;BME280;50592;52.958;-7.470;2023-04-25T06:38:09;100693.00;;;2.99;100.00
64253;BME280;50592;52.958;-7.470;2023-04-25T06:40:36;100690.94;;;3.04;100.00
64253;BME280;50592;52.958;-7.470;2023-04-25T06:43:02;100687.72;;;3.15;100.00
64253;BME280;50592;52.958;-7.470;2023-04-25T06:45:46;100682.13;;;3.36;100.00
64253;BME280;50592;52.958;-7.470;2023-04-25T06:48:12;100687.84;;;3.57;100.00
64253;BME280;50592;52.958;-7.470;2023-04-25T06:50:38;100685.06;;;3.75;100.00
64253;BME280;50592;52.958;-7.470;2023-04-25T06:53:03;100678.88;;;3.91;100.00
64253;BME280;50592;52.958;-7.470;2023-04-25T06:55:30;100687.50;;;4.20;100.00
64253;BME280;50592;52.958;-7.470;2023-04-25T06:58:07;100681.03;;;4.41;100.00
64253;BME280;50592;52.958;-7.470;2023-04-25T07:00:59;100679.69;;;4.48;100.00
64253;BME280;50592;52.958;-7.470;2023-04-25T07:03:27;100681.97;;;4.67;100.00
64253;BME280;50592;52.958;-7.470;2023-04-25T07:05:57;100675.41;;;4.88;100.00
64253;BME280;50592;52.958;-7.470;2023-04-25T07:08:23;100673.38;;;5.06;100.00
64253;BME280;50592;52.958;-7.470;2023-04-25T07:10:49;100679.66;;;5.29;100.00
64253;BME280;50592;52.958;-7.470;2023-04-25T07:13:15;100675.34;;;5.54;100.00
64253;BME280;50592;52.958;-7.470;2023-04-25T07:15:41;100669.78;;;5.72;100.00
64253;BME280;50592;52.958;-7.470;2023-04-25T07:18:08;100669.50;;;5.64;100.00
64253;BME280;50592;52.958;-7.470;2023-04-25T07:20:33;100674.81;;;5.75;100.00
64253;BME280;50592;52.958;-7.470;2023-04-25T07:23:01;100672.25;;;6.00;100.00
64253;BME280;50592;52.958;-7.470;2023-04-25T07:25:26;100674.38;;;6.07;100.00
64253;BME280;50592;52.958;-7.470;2023-04-25T07:27:53;100675.22;;;6.08;100.00
64253;BME280;50592;52.958;-7.470;2023-04-25T07:30:20;100670.56;;;6.12;100.00
64253;BME280;50592;52.958;-7.470;2023-04-25T07:32:46;100666.25;;;6.24;100.00
64253;BME280;50592;52.958;-7.470;2023-04-25T07:35:11;100659.03;;;6.14;100.00
64253;BME280;50592;52.958;-7.470;2023-04-25T07:37:37;100664.72;;;6.08;100.00
64253;BME280;50592;52.958;-7.470;2023-04-25T07:40:10;100668.25;;;6.20;100.00
64253;BME280;50592;52.958;-7.470;2023-04-25T07:42:40;100665.81;;;6.30;100.00
64253;BME280;50592;52.958;-7.470;2023-04-25T07:45:06;100671.34;;;6.38;100.00
64253;BME280;50592;52.958;-7.470;2023-04-25T07:47:33;100674.00;;;6.25;100.00
64253;BME280;50592;52.958;-7.470;2023-04-25T07:49:58;100671.09;;;6.17;100.00
64253;BME280;50592;52.958;-7.470;2023-04-25T07:52:24;100676.84;;;6.22;100.00
64253;BME280;50592;52.958;-7.470;2023-04-25T07:54:59;100682.66;;;6.14;100.00
64253;BME280;50592;52.958;-7.470;2023-04-25T07:57:37;100684.03;;;6.07;100.00
64253;BME280;50592;52.958;-7.470;2023-04-25T08:00:04;100687.47;;;5.94;100.00
64253;BME280;50592;52.958;-7.470;2023-04-25T08:02:39;100679.50;;;6.09;100.00
64253;BME280;50592;52.958;-7.470;2023-04-25T08:05:08;100679.41;;;5.98;100.00
64253;BME280;50592;52.958;-7.470;2023-04-25T08:07:38;100676.56;;;6.01;100.00
64253;BME280;50592;52.958;-7.470;2023-04-25T08:10:05;100670.59;;;5.99;100.00
64253;BME280;50592;52.958;-7.470;2023-04-25T08:12:32;100678.69;;;5.95;100.00
64253;BME280;50592;52.958;-7.470;2023-04-25T08:14:58;100677.28;;;6.03;100.00
64253;BME280;50592;52.958;-7.470;2023-04-25T08:17:29;100675.22;;;6.08;100.00
64253;BME280;50592;52.958;-7.470;2023-04-25T08:19:55;100681.38;;;6.20;100.00
64253;BME280;50592;52.958;-7.470;2023-04-25T08:22:29;100683.78;;;6.23;100.00
64253;BME280;50592;52.958;-7.470;2023-04-25T08:25:14;100693.84;;;6.29;100.00
64253;BME280;50592;52.958;-7.470;2023-04-25T08:27:40;100692.16;;;6.28;100.00
64253;BME280;50592;52.958;-7.470;2023-04-25T08:30:06;100685.25;;;6.27;100.00
64253;BME280;50592;52.958;-7.470;2023-04-25T08:32:34;100685.94;;;6.29;100.00
64253;BME280;50592;52.958;-7.470;2023-04-25T08:35:38;100688.56;;;6.29;100.00
64253;BME280;50592;52.958;-7.470;2023-04-25T08:38:04;100693.59;;;6.32;100.00
64253;BME280;50592;52.958;-7.470;2023-04-25T08:40:29;100692.47;;;6.37;100.00
64253;BME280;50592;52.958;-7.470;2023-04-25T08:43:08;100701.41;;;6.58;100.00
64253;BME280;50592;52.958;-7.470;2023-04-25T08:45:40;100692.38;;;6.74;100.00
64253;BME280;50592;52.958;-7.470;2023-04-25T08:48:11;100706.09;;;6.91;100.00
64253;BME280;50592;52.958;-7.470;2023-04-25T08:53:13;100701.34;;;7.07;100.00
64253;BME280;50592;52.958;-7.470;2023-04-25T08:55:45;100701.50;;;7.17;100.00
64253;BME280;50592;52.958;-7.470;2023-04-25T08:58:11;100705.09;;;7.16;100.00
64253;BME280;50592;52.958;-7.470;2023-04-25T09:00:38;100700.06;;;7.25;100.00
64253;BME280;50592;52.958;-7.470;2023-04-25T09:03:03;100701.03;;;7.24;100.00
64253;BME280;50592;52.958;-7.470;2023-04-25T09:05:39;100698.91;;;7.40;100.00
64253;BME280;50592;52.958;-7.470;2023-04-25T09:08:06;100707.66;;;7.52;100.00
64253;BME280;50592;52.958;-7.470;2023-04-25T09:10:33;100700.72;;;7.51;100.00
64253;BME280;50592;52.958;-7.470;2023-04-25T09:15:58;100698.56;;;7.68;100.00
64253;BME280;50592;52.958;-7.470;2023-04-25T09:18:53;100692.59;;;7.89;100.00
64253;BME280;50592;52.958;-7.470;2023-04-25T09:21:21;100696.28;;;8.09;100.00
64253;BME280;50592;52.958;-7.470;2023-04-25T09:23:48;100700.72;;;8.20;100.00
64253;BME280;50592;52.958;-7.470;2023-04-25T09:26:15;100703.41;;;8.30;100.00
64253;BME280;50592;52.958;-7.470;2023-04-25T09:28:43;100699.25;;;8.27;100.00
64253;BME280;50592;52.958;-7.470;2023-04-25T09:31:10;100701.28;;;8.24;100.00
64253;BME280;50592;52.958;-7.470;2023-04-25T09:33:40;100707.66;;;8.10;100.00
64253;BME280;50592;52.958;-7.470;2023-04-25T09:36:08;100711.94;;;8.11;100.00
64253;BME280;50592;52.958;-7.470;2023-04-25T09:38:44;100706.91;;;8.30;100.00
64253;BME280;50592;52.958;-7.470;2023-04-25T09:41:15;100707.59;;;8.44;100.00
64253;BME280;50592;52.958;-7.470;2023-04-25T09:43:48;100710.28;;;8.21;100.00
64253;BME280;50592;52.958;-7.470;2023-04-25T09:46:14;100703.22;;;8.22;100.00
64253;BME280;50592;52.958;-7.470;2023-04-25T09:48:49;100701.53;;;8.21;100.00
64253;BME280;50592;52.958;-7.470;2023-04-25T09:51:18;100707.66;;;8.21;100.00
64253;BME280;50592;52.958;-7.470;2023-04-25T09:53:45;100699.25;;;8.16;100.00
64253;BME280;50592;52.958;-7.470;2023-04-25T09:56:44;100700.72;;;8.20;100.00
64253;BME280;50592;52.958;-7.470;2023-04-25T09:59:13;100695.88;;;8.37;100.00
64253;BME280;50592;52.958;-7.470;2023-04-25T10:01:39;100698.63;;;8.35;100.00
64253;BME280;50592;52.958;-7.470;2023-04-25T10:04:24;100701.28;;;8.24;100.00
64253;BME280;50592;52.958;-7.470;2023-04-25T10:07:08;100687.94;;;8.60;100.00
64253;BME280;50592;52.958;-7.470;2023-04-25T10:09:36;100695.56;;;8.96;100.00
64253;BME280;50592;52.958;-7.470;2023-04-25T10:12:02;100692.34;;;8.92;100.00
64253;BME280;50592;52.958;-7.470;2023-04-25T10:14:31;100693.22;;;8.81;100.00
64253;BME280;50592;52.958;-7.470;2023-04-25T10:16:57;100693.75;;;8.75;100.00
64253;BME280;50592;52.958;-7.470;2023-04-25T10:19:23;100690.84;;;8.78;100.00
64253;BME280;50592;52.958;-7.470;2023-04-25T10:21:55;100698.59;;;8.91;100.00
64253;BME280;50592;52.958;-7.470;2023-04-25T10:24:23;100686.94;;;8.93;100.00
64253;BME280;50592;52.958;-7.470;2023-04-25T10:26:49;100694.03;;;9.14;100.00
64253;BME280;50592;52.958;-7.470;2023-04-25T10:29:22;100687.06;;;8.92;100.00
64253;BME280;50592;52.958;-7.470;2023-04-25T10:31:49;100682.00;;;8.79;100.00
64253;BME280;50592;52.958;-7.470;2023-04-25T10:34:15;100677.75;;;8.88;100.00
64253;BME280;50592;52.958;-7.470;2023-04-25T10:36:41;100679.63;;;8.97;100.00
64253;BME280;50592;52.958;-7.470;2023-04-25T10:39:07;100679.91;;;9.15;100.00
64253;BME280;50592;52.958;-7.470;2023-04-25T10:41:47;100679.78;;;9.17;100.00
64253;BME280;50592;52.958;-7.470;2023-04-25T10:44:14;100670.25;;;9.04;100.00
64253;BME280;50592;52.958;-7.470;2023-04-25T10:46:40;100670.56;;;9.33;100.00
64253;BME280;50592;52.958;-7.470;2023-04-25T10:49:06;100679.56;;;9.61;100.00
64253;BME280;50592;52.958;-7.470;2023-04-25T10:51:33;100665.34;;;9.52;100.00
64253;BME280;50592;52.958;-7.470;2023-04-25T10:54:06;100666.72;;;9.47;100.00
64253;BME280;50592;52.958;-7.470;2023-04-25T10:59:08;100670.25;;;9.04;100.00
64253;BME280;50592;52.958;-7.470;2023-04-25T11:01:48;100667.28;;;9.19;100.00
64253;BME280;50592;52.958;-7.470;2023-04-25T11:09:37;100659.63;;;10.39;100.00
64253;BME280;50592;52.958;-7.470;2023-04-25T11:12:04;100658.34;;;10.34;100.00
64253;BME280;50592;52.958;-7.470;2023-04-25T11:14:30;100662.06;;;10.01;100.00
64253;BME280;50592;52.958;-7.470;2023-04-25T11:16:57;100665.94;;;9.87;100.00
64253;BME280;50592;52.958;-7.470;2023-04-25T11:19:24;100651.91;;;10.07;100.00
64253;BME280;50592;52.958;-7.470;2023-04-25T11:21:51;100655.28;;;10.38;100.00
64253;BME280;50592;52.958;-7.470;2023-04-25T11:24:26;100651.66;;;10.20;91.55
64253;BME280;50592;52.958;-7.470;2023-04-25T11:26:52;100648.16;;;9.99;97.73
64253;BME280;50592;52.958;-7.470;2023-04-25T11:29:18;100650.06;;;9.77;96.39
64253;BME280;50592;52.958;-7.470;2023-04-25T11:31:44;100647.81;;;9.83;99.06
64253;BME280;50592;52.958;-7.470;2023-04-25T11:34:11;100647.97;;;9.81;100.00
64253;BME280;50592;52.958;-7.470;2023-04-25T11:36:38;100647.00;;;9.82;100.00
64253;BME280;50592;52.958;-7.470;2023-04-25T11:39:04;100654.88;;;9.72;100.00
64253;BME280;50592;52.958;-7.470;2023-04-25T11:41:31;100644.78;;;9.77;100.00
64253;BME280;50592;52.958;-7.470;2023-04-25T11:43:57;100643.41;;;9.93;100.00
64253;BME280;50592;52.958;-7.470;2023-04-25T11:46:23;100642.47;;;10.04;100.00
64253;BME280;50592;52.958;-7.470;2023-04-25T11:48:49;100632.91;;;10.13;100.00
64253;BME280;50592;52.958;-7.470;2023-04-25T11:51:16;100628.88;;;10.18;100.00
64253;BME280;50592;52.958;-7.470;2023-04-25T11:53:44;100637.63;;;10.29;100.00
64253;BME280;50592;52.958;-7.470;2023-04-25T11:56:10;100627.50;;;10.34;100.00
64253;BME280;50592;52.958;-7.470;2023-04-25T11:58:59;100629.59;;;10.40;97.94
64253;BME280;50592;52.958;-7.470;2023-04-25T12:01:31;100629.16;;;10.35;100.00
64253;BME280;50592;52.958;-7.470;2023-04-25T12:03:59;100633.59;;;10.25;99.93
64253;BME280;50592;52.958;-7.470;2023-04-25T12:06:39;100623.72;;;10.17;94.02
64253;BME280;50592;52.958;-7.470;2023-04-25T12:09:08;100626.38;;;10.27;94.64
64253;BME280;50592;52.958;-7.470;2023-04-25T12:11:45;100618.63;;;10.55;90.20
64253;BME280;50592;52.958;-7.470;2023-04-25T12:14:32;100620.13;;;10.97;92.90
64253;BME280;50592;52.958;-7.470;2023-04-25T12:16:59;100614.75;;;11.17;91.49
64253;BME280;50592;52.958;-7.470;2023-04-25T12:19:26;100617.38;;;11.27;90.24
64253;BME280;50592;52.958;-7.470;2023-04-25T12:21:52;100617.56;;;11.15;86.68
64253;BME280;50592;52.958;-7.470;2023-04-25T12:24:23;100614.94;;;11.06;85.26
64253;BME280;50592;52.958;-7.470;2023-04-25T12:26:59;100612.44;;;10.94;85.65
64253;BME280;50592;52.958;-7.470;2023-04-25T12:29:27;100616.50;;;10.88;86.47
64253;BME280;50592;52.958;-7.470;2023-04-25T12:31:54;100609.84;;;10.84;87.98
64253;BME280;50592;52.958;-7.470;2023-04-25T12:34:21;100612.91;;;10.79;88.62
64253;BME280;50592;52.958;-7.470;2023-04-25T12:36:47;100613.72;;;10.40;87.99
64253;BME280;50592;52.958;-7.470;2023-04-25T12:39:24;100609.38;;;10.10;83.69
64253;BME280;50592;52.958;-7.470;2023-04-25T12:41:51;100609.13;;;10.23;92.00
64253;BME280;50592;52.958;-7.470;2023-04-25T12:44:19;100610.81;;;10.24;89.65
64253;BME280;50592;52.958;-7.470;2023-04-25T12:46:45;100602.22;;;10.51;90.42
64253;BME280;50592;52.958;-7.470;2023-04-25T12:49:12;100598.28;;;10.65;87.68
64253;BME280;50592;52.958;-7.470;2023-04-25T12:51:37;100601.75;;;10.86;88.07
64253;BME280;50592;52.958;-7.470;2023-04-25T12:54:05;100596.50;;;10.76;84.99
64253;BME280;50592;52.958;-7.470;2023-04-25T12:56:34;100597.34;;;10.66;81.43
64253;BME280;50592;52.958;-7.470;2023-04-25T12:59:02;100595.53;;;10.67;82.97
64253;BME280;50592;52.958;-7.470;2023-04-25T13:01:31;100595.25;;;10.70;83.49
64253;BME280;50592;52.958;-7.470;2023-04-25T13:03:57;100589.81;;;10.72;81.96
64253;BME280;50592;52.958;-7.470;2023-04-25T13:06:23;100596.19;;;10.79;84.77
64253;BME280;50592;52.958;-7.470;2023-04-25T13:08:49;100590.13;;;10.69;82.69